KGXY/GXY METAR and TAF weather

Enter ICAO airport designator
Station Type Date Time Source
KGXY METAR 2022/07/01 00:56 UTC NOAA

KGXY 010056Z 20014G22KT 10SM CLR 26/11 A3008 RMK AO2 SLP146 T02610106 $


Station Type Date Time Source
KGXY Decoded METAR 2022/07/01 00:56 UTC NOAA

Greeley, Greeley-Weld County Airport, CO, United States (KGXY) 40-26N 104-38W
Jun 30, 2022 - 08:56 PM EDT / 2022.07.01 0056 UTC
Wind: from the SSW (200 degrees) at 16 MPH (14 KT) gusting to 25 MPH (22 KT):0
Visibility: 10 mile(s):0
Sky conditions: clear
Temperature: 79.0 F (26.1 C)
Dew Point: 51.1 F (10.6 C)
Relative Humidity: 37%
Pressure (altimeter): 30.08 in. Hg (1018 hPa)
ob: KGXY 010056Z 20014G22KT 10SM CLR 26/11 A3008 RMK AO2 SLP146 T02610106
cycle: 1

Station Type Date Time Source
KGXY TAF UTC NOAA

Error!

Example: see airport list